Time;durP1;ratioP1;P1;durP2;ratioP2;P2;SDS_P1;SDS_P2;PMS_P1;PMS_P2;Temp;Humidity;BMP_temperature;BMP_pressure;BME280_temperature;BME280_humidity;BME280_pressure;Samples;Min_cycle;Max_cycle;Signal;HPM_P1;HPM_P2
2020/12/13 00:00:53;;;;;;;17.23;12.00;;;;;;;5.08;97.44;98312.94;4962971;28;20039;-84
2020/12/13 00:03:58;;;;;;;16.90;11.23;;;;;;;5.08;97.40;98316.41;4980439;28;20042;-84
2020/12/13 00:07:04;;;;;;;16.67;10.53;;;;;;;5.08;97.00;98308.47;4971127;28;20039;-84
2020/12/13 00:10:08;;;;;;;16.97;11.43;;;;;;;4.64;96.26;98312.13;4958663;28;20417;-84
2020/12/13 00:13:13;;;;;;;22.37;14.87;;;;;;;4.60;98.09;98318.72;4958315;28;20054;-84
2020/12/13 00:16:17;;;;;;;18.53;12.27;;;;;;;4.60;97.65;98321.34;4970986;28;20050;-84
2020/12/13 00:19:24;;;;;;;18.73;12.63;;;;;;;4.49;97.54;98324.19;4951804;28;20043;-85
2020/12/13 00:22:29;;;;;;;15.43;10.47;;;;;;;3.72;94.96;98336.13;4981524;28;20050;-84
2020/12/13 00:25:35;;;;;;;21.30;13.27;;;;;;;3.85;99.49;98322.59;4980338;28;20046;-84
2020/12/13 00:28:41;;;;;;;22.53;14.27;;;;;;;4.01;99.95;98325.44;4980883;28;20508;-85
2020/12/13 00:31:46;;;;;;;24.10;14.83;;;;;;;3.84;99.80;98331.50;4951814;28;20050;-85
2020/12/13 00:34:50;;;;;;;19.13;12.10;;;;;;;4.01;99.56;98325.44;4969218;28;20509;-84
2020/12/13 00:37:55;;;;;;;20.57;13.50;;;;;;;4.03;99.24;98335.81;4950191;28;20054;-84
2020/12/13 00:41:00;;;;;;;22.37;14.13;;;;;;;3.84;98.89;98332.31;4969798;28;20046;-84
2020/12/13 00:44:05;;;;;;;19.80;12.37;;;;;;;3.88;100.00;98336.34;4969650;28;20069;-84
2020/12/13 00:47:09;;;;;;;18.73;12.67;;;;;;;4.09;99.83;98337.84;4950231;28;20072;-85
2020/12/13 00:50:15;;;;;;;18.30;12.00;;;;;;;4.12;99.40;98338.41;4958137;28;20062;-84
2020/12/13 00:53:21;;;;;;;21.20;13.40;;;;;;;4.03;99.13;98343.72;4946920;28;20062;-84
2020/12/13 00:56:29;;;;;;;17.83;10.97;;;;;;;3.53;97.51;98346.78;4951922;28;20061;-83
2020/12/13 00:59:33;;;;;;;16.80;11.30;;;;;;;3.83;99.39;98343.84;4980805;28;20046;-84
2020/12/13 01:02:38;;;;;;;17.50;11.23;;;;;;;3.94;99.78;98341.00;4950010;28;20062;-84
2020/12/13 01:05:42;;;;;;;15.87;10.23;;;;;;;3.90;99.50;98341.44;4946298;28;20054;-84
2020/12/13 01:08:46;;;;;;;14.77;10.80;;;;;;;3.81;99.24;98347.59;4956888;28;20498;-85
2020/12/13 01:11:50;;;;;;;18.20;12.73;;;;;;;3.77;99.58;98360.25;4956467;28;20046;-85
2020/12/13 01:14:56;;;;;;;15.97;10.97;;;;;;;3.91;100.00;98356.28;4962203;28;20050;-84
2020/12/13 01:18:03;;;;;;;14.47;9.80;;;;;;;3.86;99.68;98358.53;4957620;28;20097;-84
2020/12/13 01:21:08;;;;;;;14.47;10.07;;;;;;;3.77;99.83;98362.06;4961407;28;20061;-84
2020/12/13 01:24:12;;;;;;;14.23;9.90;;;;;;;3.58;99.09;98374.34;4957923;28;20058;-84
2020/12/13 01:27:18;;;;;;;15.20;9.37;;;;;;;3.35;98.43;98380.13;4957172;28;20058;-84
2020/12/13 01:30:21;;;;;;;14.87;9.47;;;;;;;3.31;98.47;98381.38;4956167;28;20061;-84
2020/12/13 01:33:27;;;;;;;16.03;9.90;;;;;;;3.56;99.84;98383.38;4945163;28;20062;-84
2020/12/13 01:36:32;;;;;;;13.83;9.17;;;;;;;3.58;99.44;98384.88;4967872;28;20046;-84
2020/12/13 01:39:38;;;;;;;14.37;9.63;;;;;;;3.48;99.81;98385.91;4957124;28;20418;-84
2020/12/13 01:42:50;;;;;;;13.80;9.18;;;;;;;3.46;100.00;98383.41;4959936;28;20054;-85
2020/12/13 01:45:56;;;;;;;15.73;9.50;;;;;;;3.58;100.00;98387.53;4944716;28;20591;-85
2020/12/13 01:49:09;;;;;;;11.03;8.20;;;;;;;3.62;100.00;98398.63;4980759;28;20057;-83
2020/12/13 01:55:36;;;;;;;11.87;8.83;;;;;;;3.56;100.00;98393.91;4976246;28;20437;-84
2020/12/13 01:58:46;;;;;;;9.83;7.47;;;;;;;3.59;100.00;98399.72;4978308;28;20050;-84
2020/12/13 02:01:57;;;;;;;11.83;7.83;;;;;;;3.62;99.97;98403.88;4957177;28;20069;-84
2020/12/13 02:05:06;;;;;;;11.17;7.80;;;;;;;3.62;100.00;98404.72;4961080;28;20062;-84
2020/12/13 02:08:11;;;;;;;12.93;6.60;;;;;;;3.50;99.80;98411.13;4960765;28;20043;-84
2020/12/13 02:11:19;;;;;;;8.67;6.43;;;;;;;3.58;100.00;98403.34;4948350;28;20059;-84
2020/12/13 02:14:26;;;;;;;8.77;6.27;;;;;;;3.55;99.53;98387.81;4948768;28;20054;-84
2020/12/13 02:17:34;;;;;;;9.57;6.50;;;;;;;3.44;99.72;98390.63;4948042;28;20062;-84
2020/12/13 02:20:42;;;;;;;9.33;6.40;;;;;;;3.31;100.00;98390.09;4959332;28;20055;-84
2020/12/13 02:23:48;;;;;;;8.97;6.60;;;;;;;3.45;99.95;98397.56;4987546;28;20513;-84
2020/12/13 02:26:55;;;;;;;9.73;6.57;;;;;;;3.41;100.00;98400.63;4948096;28;20055;-84
2020/12/13 02:30:00;;;;;;;11.07;7.13;;;;;;;3.31;99.81;98398.00;4964218;28;20054;-84
2020/12/13 02:33:06;;;;;;;9.47;6.80;;;;;;;3.31;99.60;98405.91;4960302;28;20061;-84
2020/12/13 02:36:13;;;;;;;9.30;6.30;;;;;;;3.33;99.76;98403.13;4976370;28;20054;-84
2020/12/13 02:39:18;;;;;;;11.77;7.73;;;;;;;3.30;99.87;98399.00;4948465;28;20050;-84
2020/12/13 02:42:25;;;;;;;10.47;7.10;;;;;;;3.33;100.00;98413.66;4948375;28;20055;-84
2020/12/13 02:45:29;;;;;;;9.73;6.50;;;;;;;3.31;99.84;98411.19;4960135;28;20054;-84
2020/12/13 02:48:34;;;;;;;8.93;6.50;;;;;;;3.45;99.90;98412.53;4947878;28;20123;-85
2020/12/13 02:51:40;;;;;;;9.83;6.50;;;;;;;3.38;100.00;98412.28;4963990;28;20058;-85
2020/12/13 02:54:46;;;;;;;8.63;6.07;;;;;;;3.28;100.00;98418.56;4959580;28;20062;-84
2020/12/13 02:57:51;;;;;;;7.83;5.83;;;;;;;3.20;100.00;98413.97;4949010;28;20421;-85
2020/12/13 03:00:56;;;;;;;7.17;5.60;;;;;;;3.24;100.00;98423.25;4964320;28;20174;-84
2020/12/13 03:04:01;;;;;;;10.20;7.20;;;;;;;3.23;100.00;98414.53;4973219;28;20050;-84
2020/12/13 03:07:04;;;;;;;8.97;6.27;;;;;;;3.28;99.75;98421.19;4959272;28;20058;-84
2020/12/13 03:10:09;;;;;;;6.13;5.40;;;;;;;3.18;100.00;98422.03;4947966;28;20047;-84
2020/12/13 03:13:14;;;;;;;7.53;5.77;;;;;;;3.17;100.00;98425.66;4983312;28;20513;-85
2020/12/13 03:16:20;;;;;;;7.07;5.30;;;;;;;3.14;99.89;98425.09;4948236;28;20038;-84
2020/12/13 03:19:27;;;;;;;7.90;5.30;;;;;;;3.17;99.88;98427.44;4983817;28;20118;-84
2020/12/13 03:22:31;;;;;;;8.30;5.83;;;;;;;3.13;100.00;98424.25;4982587;28;20057;-85
2020/12/13 03:25:36;;;;;;;7.00;5.33;;;;;;;3.14;100.00;98427.72;4959344;28;20051;-85
2020/12/13 03:28:41;;;;;;;6.93;5.07;;;;;;;3.02;100.00;98419.16;4982263;28;20057;-85
2020/12/13 03:31:47;;;;;;;8.13;5.23;;;;;;;3.09;100.00;98414.97;4982516;28;20133;-84
2020/12/13 03:34:58;;;;;;;6.20;4.87;;;;;;;3.07;100.00;98422.16;4981979;28;20054;-84
2020/12/13 03:38:04;;;;;;;5.93;4.53;;;;;;;3.08;99.67;98420.38;4970136;28;20497;-85
2020/12/13 03:41:10;;;;;;;4.83;4.27;;;;;;;3.10;99.18;98421.06;4970073;28;20046;-85
2020/12/13 03:44:17;;;;;;;7.40;5.80;;;;;;;3.02;99.87;98424.41;4981520;28;20046;-85
2020/12/13 03:47:23;;;;;;;6.53;4.77;;;;;;;3.06;99.88;98423.16;4963801;28;20053;-85
2020/12/13 03:50:38;;;;;;;6.73;4.77;;;;;;;3.08;100.00;98428.28;4959163;28;20057;-85
2020/12/13 03:53:44;;;;;;;8.90;4.93;;;;;;;2.92;100.00;98433.28;4981160;28;20057;-84
2020/12/13 03:56:49;;;;;;;6.73;4.87;;;;;;;2.98;100.00;98443.25;4982262;28;20401;-84
2020/12/13 03:59:55;;;;;;;9.30;4.93;;;;;;;3.01;99.77;98450.88;4982071;28;20042;-85
2020/12/13 04:03:04;;;;;;;4.83;3.80;;;;;;;2.93;100.00;98454.22;4958265;28;20042;-86
2020/12/13 04:06:12;;;;;;;7.70;3.77;;;;;;;3.02;100.00;98449.91;4958939;28;20058;-85
2020/12/13 04:09:18;;;;;;;6.17;4.00;;;;;;;2.91;100.00;98445.63;4945548;28;20676;-85
2020/12/13 04:12:23;;;;;;;5.67;3.70;;;;;;;2.86;99.89;98448.66;4947207;28;20508;-84
2020/12/13 04:15:29;;;;;;;4.23;3.37;;;;;;;2.92;100.00;98447.28;4946746;28;20482;-84
2020/12/13 04:18:34;;;;;;;4.87;3.83;;;;;;;2.88;99.98;98453.78;4971588;28;20046;-84
2020/12/13 04:21:38;;;;;;;4.77;3.50;;;;;;;2.95;99.22;98457.53;4945672;28;20050;-84
2020/12/13 04:24:43;;;;;;;5.37;3.53;;;;;;;3.05;98.91;98460.19;4962822;28;20081;-84
2020/12/13 04:27:49;;;;;;;3.67;3.37;;;;;;;2.93;99.44;98466.56;4970910;28;20523;-85
2020/12/13 04:30:55;;;;;;;3.20;2.80;;;;;;;2.93;98.79;98463.91;4946291;28;20501;-84
2020/12/13 04:34:01;;;;;;;7.53;3.47;;;;;;;2.94;99.43;98470.84;4970893;28;20042;-84
2020/12/13 04:37:06;;;;;;;3.77;2.97;;;;;;;2.87;99.59;98471.38;4962345;28;20065;-85
2020/12/13 04:40:11;;;;;;;3.70;2.67;;;;;;;2.88;99.22;98475.69;4962433;28;20054;-85
2020/12/13 04:43:16;;;;;;;5.63;2.67;;;;;;;2.86;99.40;98469.72;4961982;28;20054;-85
2020/12/13 04:46:28;;;;;;;3.57;2.80;;;;;;;2.84;99.48;98471.66;4958632;28;20497;-85
2020/12/13 04:49:35;;;;;;;4.13;2.67;;;;;;;2.82;99.92;98472.78;4969330;28;20053;-84
2020/12/13 04:52:41;;;;;;;3.73;2.83;;;;;;;2.70;98.70;98472.09;4945390;28;20050;-84
2020/12/13 04:55:59;;;;;;;3.57;2.73;;;;;;;2.95;98.25;98478.59;4969155;28;20050;-84
2020/12/13 04:59:07;;;;;;;3.60;2.57;;;;;;;2.93;98.47;98487.63;4959696;28;20462;-85
2020/12/13 05:02:14;;;;;;;2.60;2.40;;;;;;;2.84;98.56;98495.34;4969087;28;20050;-85
2020/12/13 05:05:24;;;;;;;4.10;3.00;;;;;;;2.72;98.68;98498.25;4980755;28;20050;-84
2020/12/13 05:08:31;;;;;;;3.77;2.40;;;;;;;2.75;99.19;98490.09;4969887;28;20050;-85
2020/12/13 05:11:40;;;;;;;3.07;2.53;;;;;;;2.76;98.95;98495.22;4946632;28;20054;-85
2020/12/13 05:14:50;;;;;;;2.50;2.13;;;;;;;2.75;99.05;98492.72;4956464;28;20054;-86
2020/12/13 05:18:00;;;;;;;2.80;2.20;;;;;;;2.75;98.90;98498.81;4970239;28;20393;-84
2020/12/13 05:21:07;;;;;;;3.13;2.10;;;;;;;2.81;99.16;98497.44;4957399;28;20494;-85
2020/12/13 05:24:15;;;;;;;2.73;2.40;;;;;;;2.77;98.10;98503.94;4946615;28;20049;-84
2020/12/13 05:27:41;;;;;;;3.40;2.30;;;;;;;2.76;98.43;98516.28;4969971;28;20053;-84
2020/12/13 05:30:48;;;;;;;2.97;2.30;;;;;;;2.72;98.51;98519.28;4957919;28;20043;-84
2020/12/13 05:34:05;;;;;;;2.90;2.13;;;;;;;2.73;97.94;98516.53;4981178;28;20393;-84
2020/12/13 05:37:15;;;;;;;6.47;2.17;;;;;;;2.86;97.89;98519.75;4959563;28;20057;-84
2020/12/13 05:40:22;;;;;;;2.70;1.85;;;;;;;2.76;97.83;98518.06;4969103;28;20401;-85
2020/12/13 05:43:32;;;;;;;8.63;2.33;;;;;;;2.66;97.93;98525.94;4967790;28;20065;-84
2020/12/13 05:50:12;;;;;;;1.93;1.80;;;;;;;2.80;97.87;98548.44;4964550;28;20046;-84
2020/12/13 05:53:19;;;;;;;2.00;1.80;;;;;;;2.78;97.82;98548.56;4974437;28;20054;-85
2020/12/13 05:56:25;;;;;;;2.47;1.97;;;;;;;2.71;97.94;98555.34;4981306;28;20050;-84
2020/12/13 05:59:32;;;;;;;1.83;1.50;;;;;;;2.54;98.06;98566.50;4955742;28;20046;-84
2020/12/13 06:02:40;;;;;;;2.30;1.90;;;;;;;2.62;97.85;98569.28;4968993;28;20057;-84
2020/12/13 06:05:45;;;;;;;4.30;1.80;;;;;;;2.67;98.07;98564.47;4947870;28;20054;-84
2020/12/13 06:09:09;;;;;;;3.17;1.93;;;;;;;2.58;98.37;98560.00;4964401;28;20047;-84
2020/12/13 06:12:15;;;;;;;2.73;2.10;;;;;;;2.58;98.75;98562.66;4949985;28;20055;-84
2020/12/13 06:15:21;;;;;;;1.67;1.57;;;;;;;2.59;98.52;98572.22;4964180;28;20409;-84
2020/12/13 06:18:26;;;;;;;1.80;1.63;;;;;;;2.54;98.53;98577.03;4948662;28;20046;-84
2020/12/13 06:21:41;;;;;;;2.33;1.90;;;;;;;2.54;97.71;98582.28;4964402;28;20057;-84
2020/12/13 06:24:52;;;;;;;4.20;1.40;;;;;;;2.48;97.69;98578.38;4971488;28;20054;-84
2020/12/13 06:27:58;;;;;;;2.58;1.70;;;;;;;2.54;97.72;98575.22;4949230;28;20050;-84
2020/12/13 06:31:04;;;;;;;1.77;1.67;;;;;;;2.60;98.11;98584.38;4948040;28;20054;-85
2020/12/13 06:34:11;;;;;;;2.50;1.77;;;;;;;2.63;97.42;98585.91;4947681;28;20062;-85
2020/12/13 06:37:15;;;;;;;1.80;1.60;;;;;;;2.51;97.77;98595.69;4971142;28;20054;-85
2020/12/13 06:40:22;;;;;;;1.53;1.43;;;;;;;2.56;97.60;98601.41;4960532;28;20057;-85
2020/12/13 06:43:29;;;;;;;1.87;1.70;;;;;;;2.64;97.96;98598.94;4948147;28;20061;-84
2020/12/13 06:46:40;;;;;;;2.90;1.70;;;;;;;2.55;98.45;98599.75;4958795;28;20055;-84
2020/12/13 06:49:54;;;;;;;1.40;1.27;;;;;;;2.53;98.77;98596.41;4948084;28;20055;-85
2020/12/13 06:53:00;;;;;;;7.33;1.77;;;;;;;2.46;98.75;98598.75;4964355;28;20055;-85
2020/12/13 06:56:10;;;;;;;2.10;1.90;;;;;;;2.47;98.14;98602.22;4975705;28;20042;-84
2020/12/13 06:59:15;;;;;;;3.20;2.00;;;;;;;2.51;98.47;98611.50;4948122;28;20051;-84
2020/12/13 07:02:50;;;;;;;1.83;1.57;;;;;;;2.63;98.00;98612.22;4948302;28;20054;-84
2020/12/13 07:05:58;;;;;;;3.17;1.80;;;;;;;2.60;97.70;98623.84;4951515;28;20051;-84
2020/12/13 07:09:09;;;;;;;1.40;1.30;;;;;;;2.56;98.90;98614.56;4976623;28;20065;-85
2020/12/13 07:12:16;;;;;;;2.67;1.75;;;;;;;2.51;98.08;98628.09;4963987;28;20389;-84
2020/12/13 07:15:30;;;;;;;1.90;1.70;;;;;;;2.57;98.22;98632.03;4963551;28;20063;-84
2020/12/13 07:18:49;;;;;;;3.80;2.07;;;;;;;2.67;97.76;98630.25;4958412;28;20054;-84
2020/12/13 07:22:05;;;;;;;2.10;1.73;;;;;;;2.70;98.67;98626.53;4947855;28;20066;-84
2020/12/13 07:25:11;;;;;;;2.00;1.80;;;;;;;2.78;98.24;98638.06;4959347;28;20058;-84
2020/12/13 07:28:19;;;;;;;2.90;2.00;;;;;;;2.84;97.88;98634.88;4948400;28;20069;-85
2020/12/13 07:31:27;;;;;;;1.93;1.67;;;;;;;2.81;98.44;98635.16;4947575;28;20062;-84
2020/12/13 07:34:33;;;;;;;2.50;1.73;;;;;;;2.92;98.60;98633.38;4946897;28;20058;-84
2020/12/13 07:37:38;;;;;;;2.00;1.80;;;;;;;3.07;97.96;98643.38;4947417;28;20059;-85
2020/12/13 07:40:43;;;;;;;2.47;1.60;;;;;;;3.14;98.77;98641.06;4963240;28;20047;-84
2020/12/13 07:43:58;;;;;;;2.50;1.50;;;;;;;3.23;98.44;98646.34;4963468;28;20055;-85
2020/12/13 07:47:03;;;;;;;2.33;1.77;;;;;;;3.38;98.24;98652.06;4951899;28;20061;-83
2020/12/13 07:50:09;;;;;;;2.90;1.97;;;;;;;3.57;98.71;98657.34;4950794;28;20394;-84
2020/12/13 07:53:26;;;;;;;2.63;1.77;;;;;;;3.83;98.02;98664.69;4979247;28;20062;-83
2020/12/13 07:56:30;;;;;;;3.70;1.57;;;;;;;4.04;97.66;98665.38;4963057;28;20046;-83
2020/12/13 07:59:39;;;;;;;3.50;1.30;;;;;;;4.03;96.22;98660.22;4979313;28;20062;-85
2020/12/13 08:02:46;;;;;;;1.23;1.13;;;;;;;4.16;96.51;98669.50;4951515;28;20402;-84
2020/12/13 08:06:02;;;;;;;2.87;1.53;;;;;;;4.40;96.91;98673.50;4949924;28;20043;-83
2020/12/13 08:09:12;;;;;;;2.20;1.20;;;;;;;4.64;95.43;98674.66;4951626;28;20073;-83
2020/12/13 08:12:17;;;;;;;3.90;1.10;;;;;;;4.79;94.48;98677.69;4950202;28;20058;-83
2020/12/13 08:15:24;;;;;;;1.20;0.83;;;;;;;5.00;94.19;98680.91;4979020;28;20054;-84
2020/12/13 08:18:30;;;;;;;2.00;1.03;;;;;;;5.31;92.07;98676.16;4950445;28;20058;-84
2020/12/13 08:21:48;;;;;;;3.87;1.47;;;;;;;5.55;93.09;98685.31;4950913;28;20055;-83
2020/12/13 08:25:08;;;;;;;1.33;1.00;;;;;;;5.70;91.99;98692.59;4960718;28;20054;-83
2020/12/13 08:28:24;;;;;;;1.40;0.97;;;;;;;5.80;89.41;98696.00;4965574;28;20058;-84
2020/12/13 08:31:32;;;;;;;1.27;1.17;;;;;;;6.01;90.58;98701.03;4961288;28;20054;-83
2020/12/13 08:34:39;;;;;;;7.23;1.33;;;;;;;6.22;91.12;98703.34;4949480;28;20409;-84
2020/12/13 08:37:54;;;;;;;1.20;1.10;;;;;;;6.38;88.87;98713.22;4950545;28;20051;-84
2020/12/13 08:41:01;;;;;;;1.77;1.37;;;;;;;6.56;88.24;98713.19;4957517;28;20489;-84
2020/12/13 08:44:08;;;;;;;5.17;1.90;;;;;;;6.70;87.43;98717.94;4965976;28;20058;-83
2020/12/13 08:47:14;;;;;;;1.77;1.20;;;;;;;6.82;88.34;98720.16;4950027;28;20405;-84
2020/12/13 08:50:21;;;;;;;2.90;1.58;;;;;;;7.52;84.51;98719.97;4965666;28;20066;-85
2020/12/13 08:53:29;;;;;;;9.13;1.77;;;;;;;7.71;84.06;98727.66;4965748;28;20058;-85
2020/12/13 08:56:37;;;;;;;7.38;1.92;;;;;;;7.89;83.89;98727.53;4972663;28;20051;-84
2020/12/13 08:59:57;;;;;;;3.42;1.40;;;;;;;8.11;83.53;98737.53;4950250;28;20473;-84
2020/12/13 09:03:06;;;;;;;3.45;1.27;;;;;;;8.28;81.11;98741.00;4963924;28;20053;-84
2020/12/13 09:06:12;;;;;;;1.27;1.10;;;;;;;8.59;79.94;98747.38;4949856;28;20394;-85
2020/12/13 09:09:18;;;;;;;4.65;1.55;;;;;;;8.80;81.58;98751.31;4961891;28;20767;-84
2020/12/13 09:12:28;;;;;;;5.85;1.73;;;;;;;9.05;80.40;98752.94;4949211;28;20410;-84
2020/12/13 09:15:34;;;;;;;1.98;1.42;;;;;;;9.20;81.35;98756.56;4977693;28;20061;-85
2020/12/13 09:18:40;;;;;;;1.70;1.60;;;;;;;9.30;78.48;98767.00;4961658;28;20051;-84
2020/12/13 09:21:49;;;;;;;2.97;1.77;;;;;;;9.43;78.30;98769.94;4977330;28;20059;-84
2020/12/13 09:24:54;;;;;;;2.85;1.50;;;;;;;9.62;78.41;98772.19;4949118;28;20051;-85
2020/12/13 09:28:04;;;;;;;2.72;1.48;;;;;;;9.73;76.32;98778.97;4948877;28;20058;-85
2020/12/13 09:31:12;;;;;;;2.42;1.70;;;;;;;9.84;78.22;98770.59;4948827;28;20051;-85
2020/12/13 09:34:18;;;;;;;3.90;1.60;;;;;;;10.48;73.88;98788.03;4948705;28;20059;-85
2020/12/13 09:37:22;;;;;;;2.30;1.40;;;;;;;10.48;73.97;98792.53;4975748;28;20047;-85
2020/12/13 09:40:29;;;;;;;3.05;1.85;;;;;;;10.44;75.57;98789.38;4959946;28;20512;-85
2020/12/13 09:43:34;;;;;;;2.65;1.33;;;;;;;10.69;72.49;98797.19;4948804;28;20059;-84
2020/12/13 09:46:40;;;;;;;4.10;1.55;;;;;;;10.74;70.91;98794.81;4948646;28;20058;-84
2020/12/13 09:49:47;;;;;;;6.05;1.25;;;;;;;10.93;70.87;98793.50;4961060;28;20050;-85
2020/12/13 09:52:53;;;;;;;1.35;1.23;;;;;;;10.77;68.91;98789.94;4948798;28;20493;-85
2020/12/13 09:55:59;;;;;;;1.50;1.38;;;;;;;10.95;66.88;98789.63;4948904;28;20054;-85
2020/12/13 09:59:04;;;;;;;4.30;1.80;;;;;;;10.54;70.23;98791.81;4961208;28;20054;-85
2020/12/13 10:02:12;;;;;;;1.45;1.35;;;;;;;10.48;68.03;98795.19;4948558;28;20058;-85
2020/12/13 10:05:29;;;;;;;1.98;1.75;;;;;;;10.64;69.65;98794.22;4960160;28;20050;-85
2020/12/13 10:11:52;;;;;;;3.90;2.47;;;;;;;10.76;71.45;98795.47;4962675;28;20047;-86
2020/12/13 10:14:56;;;;;;;1.85;1.75;;;;;;;10.65;69.24;98799.38;4948120;28;20062;-86
2020/12/13 10:18:02;;;;;;;2.47;2.10;;;;;;;10.63;70.15;98803.22;4964353;28;20051;-84
2020/12/13 10:21:06;;;;;;;4.45;3.53;;;;;;;10.94;67.83;98801.31;4947974;28;20053;-84
2020/12/13 10:24:11;;;;;;;5.35;4.10;;;;;;;10.66;70.83;98803.72;4948268;28;20054;-85
2020/12/13 10:27:18;;;;;;;6.43;5.53;;;;;;;10.65;70.14;98807.38;4948353;28;20055;-85
2020/12/13 10:30:24;;;;;;;5.88;5.18;;;;;;;10.40;70.71;98803.22;4948404;28;20047;-85
2020/12/13 10:33:28;;;;;;;6.28;5.20;;;;;;;10.58;70.37;98806.44;4947704;28;20050;-85
2020/12/13 10:36:48;;;;;;;7.93;5.75;;;;;;;10.54;71.56;98799.81;4948107;28;20081;-86
2020/12/13 10:39:54;;;;;;;7.47;5.82;;;;;;;10.45;71.28;98796.38;4948048;28;20428;-86
2020/12/13 10:43:00;;;;;;;7.22;5.70;;;;;;;10.41;72.08;98796.91;4947859;28;20077;-85
2020/12/13 10:46:07;;;;;;;7.60;6.45;;;;;;;10.50;70.01;98794.00;4947973;28;20053;-85
2020/12/13 10:49:14;;;;;;;9.50;6.15;;;;;;;10.28;71.06;98784.16;4947862;28;20058;-85
2020/12/13 10:52:21;;;;;;;7.15;6.25;;;;;;;10.39;72.98;98785.59;4948464;28;20050;-86
2020/12/13 10:55:28;;;;;;;6.82;5.50;;;;;;;10.48;70.34;98784.53;4947547;28;20050;-86
2020/12/13 10:58:45;;;;;;;7.78;6.15;;;;;;;10.53;69.77;98784.81;4971616;28;20050;-86
2020/12/13 11:01:51;;;;;;;7.18;6.03;;;;;;;10.43;71.83;98782.41;4948332;28;20055;-85
2020/12/13 11:04:57;;;;;;;7.43;6.20;;;;;;;10.43;70.52;98785.06;4960276;28;20516;-85
2020/12/13 11:08:04;;;;;;;8.13;6.47;;;;;;;10.52;70.15;98785.00;4963996;28;20047;-86
2020/12/13 11:11:09;;;;;;;10.05;7.20;;;;;;;10.82;71.11;98773.41;4947513;28;20063;-86
2020/12/13 11:14:16;;;;;;;8.00;6.63;;;;;;;10.90;69.25;98777.84;4953753;28;20043;-87
2020/12/13 11:17:21;;;;;;;8.57;7.00;;;;;;;10.76;70.11;98782.97;4947752;28;20046;-86
2020/12/13 11:20:26;;;;;;;9.48;7.38;;;;;;;10.67;71.53;98768.03;4951104;28;20043;-86
2020/12/13 11:23:31;;;;;;;9.90;7.45;;;;;;;11.18;69.55;98768.22;4964027;28;20402;-86
2020/12/13 11:26:37;;;;;;;9.68;7.18;;;;;;;11.48;66.77;98769.88;4963554;28;20042;-86
2020/12/13 11:29:42;;;;;;;8.05;6.22;;;;;;;11.28;68.49;98774.13;4951207;28;20432;-85
2020/12/13 11:32:46;;;;;;;7.00;6.13;;;;;;;10.98;68.03;98769.75;4950943;28;20047;-87
2020/12/13 11:35:51;;;;;;;8.82;6.65;;;;;;;11.33;68.86;98769.03;4951098;28;20054;-86
2020/12/13 11:38:56;;;;;;;7.95;6.40;;;;;;;11.70;68.59;98775.28;4950971;28;20042;-87
2020/12/13 11:42:07;;;;;;;8.38;6.68;;;;;;;11.71;66.70;98766.25;4963233;28;20055;-86
2020/12/13 11:45:13;;;;;;;10.43;6.93;;;;;;;11.56;67.06;98764.44;4950834;28;20055;-87
2020/12/13 11:48:18;;;;;;;8.75;7.38;;;;;;;11.85;68.63;98762.78;4950867;28;20131;-86
2020/12/13 11:51:22;;;;;;;9.70;6.90;;;;;;;11.89;66.86;98775.56;4950616;28;20058;-87
2020/12/13 11:54:27;;;;;;;10.05;7.38;;;;;;;11.83;66.30;98770.13;4950742;28;20051;-87
2020/12/13 11:57:32;;;;;;;9.18;7.05;;;;;;;11.68;67.11;98767.47;4950820;28;20053;-87
2020/12/13 12:00:39;;;;;;;8.73;6.95;;;;;;;11.69;67.74;98760.28;4950713;28;20050;-87
2020/12/13 12:03:45;;;;;;;8.32;6.88;;;;;;;12.05;65.34;98763.00;4950730;28;20501;-87
2020/12/13 12:06:51;;;;;;;8.80;6.80;;;;;;;11.97;65.42;98755.09;4962732;28;20076;-87
2020/12/13 12:09:57;;;;;;;8.57;6.55;;;;;;;12.09;66.45;98764.28;4963157;28;20050;-88
2020/12/13 12:13:03;;;;;;;8.00;6.70;;;;;;;11.56;66.41;98767.09;4950870;28;20061;-86
2020/12/13 12:16:07;;;;;;;7.10;6.22;;;;;;;11.88;65.73;98767.75;4966489;28;20053;-87
2020/12/13 12:19:14;;;;;;;10.00;6.35;;;;;;;12.02;65.70;98760.72;4967276;28;20054;-86
2020/12/13 12:22:19;;;;;;;8.23;7.05;;;;;;;12.26;64.88;98766.53;4950017;28;20042;-86
2020/12/13 12:25:26;;;;;;;10.30;7.18;;;;;;;11.90;66.39;98774.56;4967492;28;20382;-86
2020/12/13 12:28:30;;;;;;;10.35;8.15;;;;;;;12.19;64.32;98772.81;4966196;28;20054;-86
2020/12/13 12:31:36;;;;;;;9.95;8.27;;;;;;;11.98;65.45;98778.13;4949428;28;20061;-87
2020/12/13 12:34:40;;;;;;;10.63;8.68;;;;;;;11.53;66.48;98772.00;4966601;28;20046;-87
2020/12/13 12:37:45;;;;;;;13.95;9.20;;;;;;;11.76;65.71;98774.59;4966399;28;20054;-86
2020/12/13 12:40:51;;;;;;;12.77;9.57;;;;;;;11.83;64.33;98780.81;4967391;28;20057;-87
2020/12/13 12:43:55;;;;;;;14.50;10.52;;;;;;;11.59;65.35;98774.75;4949758;28;20374;-86
2020/12/13 12:47:00;;;;;;;14.07;10.45;;;;;;;11.65;65.01;98775.03;4965174;28;20057;-87
2020/12/13 12:50:05;;;;;;;13.55;10.27;;;;;;;11.62;65.61;98767.38;4965070;28;20370;-87
2020/12/13 12:53:10;;;;;;;13.73;11.05;;;;;;;11.64;66.11;98770.69;4965388;28;20065;-86
2020/12/13 12:56:16;;;;;;;15.65;10.90;;;;;;;11.78;66.15;98772.56;4965046;28;20049;-86
2020/12/13 12:59:29;;;;;;;14.95;10.90;;;;;;;11.83;65.58;98775.47;4965109;28;20054;-86
2020/12/13 13:02:35;;;;;;;15.07;10.50;;;;;;;11.60;66.13;98772.91;4968495;28;20386;-86
2020/12/13 13:05:55;;;;;;;15.10;11.75;;;;;;;11.88;64.90;98778.44;4966324;28;20054;-86
2020/12/13 13:12:10;;;;;;;16.10;12.35;;;;;;;11.74;65.05;98779.25;4938143;28;20053;-87
2020/12/13 13:15:21;;;;;;;18.08;12.50;;;;;;;11.54;65.65;98781.66;4938521;28;20050;-86
2020/12/13 13:18:31;;;;;;;18.80;14.10;;;;;;;11.48;67.12;98783.22;4951118;28;20051;-86
2020/12/13 13:21:41;;;;;;;17.70;13.70;;;;;;;11.18;68.21;98793.06;4962612;28;20042;-86
2020/12/13 13:24:49;;;;;;;25.75;16.17;;;;;;;11.33;67.68;98790.41;4938802;28;20055;-85
2020/12/13 13:27:54;;;;;;;26.88;18.67;;;;;;;11.23;68.05;98789.84;4937740;28;20062;-86
2020/12/13 13:31:01;;;;;;;26.67;18.35;;;;;;;11.24;68.36;98796.84;4938106;28;20058;-85
2020/12/13 13:34:07;;;;;;;23.95;16.90;;;;;;;10.94;69.77;98790.66;4959915;28;20069;-85
2020/12/13 13:37:12;;;;;;;23.27;17.05;;;;;;;10.83;70.03;98791.91;4937748;28;20053;-85
2020/12/13 13:40:18;;;;;;;26.90;19.60;;;;;;;10.84;71.51;98798.91;4937385;28;20051;-86
2020/12/13 13:43:23;;;;;;;24.23;17.27;;;;;;;10.98;68.25;98794.59;4936791;28;20047;-85
2020/12/13 13:52:52;;;;;;;39.60;27.33;;;;;;;10.49;71.04;98802.19;4938499;28;20501;-86
2020/12/13 13:55:58;;;;;;;37.55;26.08;;;;;;;10.58;70.94;98795.78;4936937;28;20059;-86
2020/12/13 13:59:02;;;;;;;35.35;24.25;;;;;;;10.29;72.90;98806.31;4937089;28;20051;-86
2020/12/13 14:02:09;;;;;;;37.17;25.05;;;;;;;10.36;73.03;98817.94;4943066;28;20050;-86
2020/12/13 14:05:14;;;;;;;36.45;26.13;;;;;;;10.38;72.47;98815.94;4959349;28;20062;-86
2020/12/13 14:11:23;;;;;;;37.58;26.13;;;;;;;10.43;72.65;98824.22;4960587;28;20069;-85
2020/12/13 14:14:30;;;;;;;39.55;28.80;;;;;;;10.33;74.10;98818.28;4960831;28;20069;-85
2020/12/13 14:17:34;;;;;;;43.90;29.13;;;;;;;10.36;73.12;98809.94;4978925;28;20050;-85
2020/12/13 14:20:39;;;;;;;42.00;28.98;;;;;;;10.18;74.76;98809.34;4960968;28;20062;-85
2020/12/13 14:23:43;;;;;;;45.92;29.80;;;;;;;9.84;75.75;98812.34;4967647;28;20050;-85
2020/12/13 14:26:48;;;;;;;45.80;29.80;;;;;;;9.88;75.24;98819.84;4980328;28;20468;-85
2020/12/13 14:29:52;;;;;;;43.58;29.30;;;;;;;9.67;76.51;98816.94;4956607;28;20049;-85
2020/12/13 14:32:57;;;;;;;48.33;31.67;;;;;;;9.49;77.42;98832.28;4960821;28;20050;-85
2020/12/13 14:36:05;;;;;;;42.35;30.45;;;;;;;9.26;78.22;98835.66;4961310;28;20434;-85
2020/12/13 14:39:12;;;;;;;45.03;30.85;;;;;;;9.04;79.87;98837.22;4961129;28;20061;-85
2020/12/13 14:42:17;;;;;;;49.40;32.13;;;;;;;8.92;80.55;98837.72;4960702;28;20046;-85
2020/12/13 14:45:21;;;;;;;54.40;34.67;;;;;;;8.80;81.37;98839.88;4960699;28;20073;-85
2020/12/13 14:48:27;;;;;;;48.42;33.40;;;;;;;8.79;79.83;98840.03;4956736;28;20046;-86
2020/12/13 14:51:32;;;;;;;47.17;32.75;;;;;;;8.62;81.12;98853.31;4980038;28;20063;-86
2020/12/13 14:54:37;;;;;;;52.92;35.90;;;;;;;8.42;81.69;98857.28;4963137;28;20497;-86
2020/12/13 14:57:41;;;;;;;60.63;39.53;;;;;;;8.30;83.28;98856.72;4960375;28;20046;-85
2020/12/13 15:00:46;;;;;;;63.97;42.03;;;;;;;8.05;84.69;98851.50;4960122;28;20042;-85
2020/12/13 15:03:52;;;;;;;62.28;41.83;;;;;;;7.80;86.17;98846.09;4964892;28;20058;-85